sensor_id;sensor_type;location;lat;lon;timestamp;pressure;altitude;pressure_sealevel;temperature;humidity
61014;BME280;46899;47.542;19.082;2023-05-17T00:02:21;99637.25;;;13.57;100.00
61014;BME280;46899;47.542;19.082;2023-05-17T00:05:24;99633.78;;;13.57;100.00
61014;BME280;46899;47.542;19.082;2023-05-17T00:08:26;99634.63;;;13.57;100.00
61014;BME280;46899;47.542;19.082;2023-05-17T00:11:29;99635.97;;;13.64;100.00
61014;BME280;46899;47.542;19.082;2023-05-17T00:14:31;99641.00;;;13.67;100.00
61014;BME280;46899;47.542;19.082;2023-05-17T00:17:34;99641.94;;;13.66;100.00
61014;BME280;46899;47.542;19.082;2023-05-17T00:20:38;99647.16;;;13.66;100.00
61014;BME280;46899;47.542;19.082;2023-05-17T00:23:41;99643.66;;;13.82;100.00
61014;BME280;46899;47.542;19.082;2023-05-17T00:26:43;99647.72;;;13.71;100.00
61014;BME280;46899;47.542;19.082;2023-05-17T00:29:46;99635.78;;;13.67;100.00
61014;BME280;46899;47.542;19.082;2023-05-17T00:32:48;99630.72;;;13.64;100.00
61014;BME280;46899;47.542;19.082;2023-05-17T00:35:52;99634.84;;;13.68;100.00
61014;BME280;46899;47.542;19.082;2023-05-17T00:38:55;99624.66;;;13.64;100.00
61014;BME280;46899;47.542;19.082;2023-05-17T00:41:57;99627.47;;;13.61;100.00
61014;BME280;46899;47.542;19.082;2023-05-17T00:45:00;99626.78;;;13.57;100.00
61014;BME280;46899;47.542;19.082;2023-05-17T00:48:03;99618.03;;;13.58;100.00
61014;BME280;46899;47.542;19.082;2023-05-17T00:51:06;99621.00;;;13.52;100.00
61014;BME280;46899;47.542;19.082;2023-05-17T00:54:09;99625.47;;;13.50;100.00
61014;BME280;46899;47.542;19.082;2023-05-17T00:57:11;99631.12;;;13.43;100.00
61014;BME280;46899;47.542;19.082;2023-05-17T01:00:14;99628.78;;;13.38;100.00
61014;BME280;46899;47.542;19.082;2023-05-17T01:03:16;99630.81;;;13.33;100.00
61014;BME280;46899;47.542;19.082;2023-05-17T01:06:19;99645.69;;;13.33;100.00
61014;BME280;46899;47.542;19.082;2023-05-17T01:09:22;99651.25;;;13.27;100.00
61014;BME280;46899;47.542;19.082;2023-05-17T01:15:29;99657.84;;;13.18;100.00
61014;BME280;46899;47.542;19.082;2023-05-17T01:18:37;99652.13;;;13.12;100.00
61014;BME280;46899;47.542;19.082;2023-05-17T01:24:50;99644.69;;;13.04;100.00
61014;BME280;46899;47.542;19.082;2023-05-17T01:27:55;99642.13;;;13.02;100.00
61014;BME280;46899;47.542;19.082;2023-05-17T01:31:00;99637.00;;;13.01;100.00
61014;BME280;46899;47.542;19.082;2023-05-17T01:34:07;99624.81;;;13.01;100.00
61014;BME280;46899;47.542;19.082;2023-05-17T01:37:10;99623.22;;;12.99;100.00
61014;BME280;46899;47.542;19.082;2023-05-17T01:40:12;99627.50;;;13.00;100.00
61014;BME280;46899;47.542;19.082;2023-05-17T01:43:24;99623.09;;;13.00;100.00
61014;BME280;46899;47.542;19.082;2023-05-17T01:46:32;99629.94;;;13.03;100.00
61014;BME280;46899;47.542;19.082;2023-05-17T01:49:39;99627.19;;;13.06;100.00
61014;BME280;46899;47.542;19.082;2023-05-17T01:52:51;99615.47;;;13.13;100.00
61014;BME280;46899;47.542;19.082;2023-05-17T01:56:04;99620.16;;;13.22;100.00
61014;BME280;46899;47.542;19.082;2023-05-17T01:59:09;99613.66;;;13.29;100.00
61014;BME280;46899;47.542;19.082;2023-05-17T02:02:13;99606.38;;;13.34;100.00
61014;BME280;46899;47.542;19.082;2023-05-17T02:05:16;99616.56;;;13.39;100.00
61014;BME280;46899;47.542;19.082;2023-05-17T02:08:19;99618.06;;;13.43;100.00
61014;BME280;46899;47.542;19.082;2023-05-17T02:11:21;99614.44;;;13.45;100.00
61014;BME280;46899;47.542;19.082;2023-05-17T02:14:26;99616.88;;;13.48;100.00
61014;BME280;46899;47.542;19.082;2023-05-17T02:17:29;99624.72;;;13.48;100.00
61014;BME280;46899;47.542;19.082;2023-05-17T02:20:31;99621.19;;;13.49;100.00
61014;BME280;46899;47.542;19.082;2023-05-17T02:23:34;99628.25;;;13.47;100.00
61014;BME280;46899;47.542;19.082;2023-05-17T02:26:37;99617.16;;;13.44;100.00
61014;BME280;46899;47.542;19.082;2023-05-17T02:29:39;99624.31;;;13.40;100.00
61014;BME280;46899;47.542;19.082;2023-05-17T02:32:42;99635.53;;;13.42;100.00
61014;BME280;46899;47.542;19.082;2023-05-17T02:35:44;99643.44;;;13.41;100.00
61014;BME280;46899;47.542;19.082;2023-05-17T02:38:47;99656.44;;;13.42;100.00
61014;BME280;46899;47.542;19.082;2023-05-17T02:41:49;99661.84;;;13.39;100.00
61014;BME280;46899;47.542;19.082;2023-05-17T02:44:52;99670.78;;;13.35;100.00
61014;BME280;46899;47.542;19.082;2023-05-17T02:47:57;99665.47;;;13.37;100.00
61014;BME280;46899;47.542;19.082;2023-05-17T02:51:00;99670.78;;;13.35;100.00
61014;BME280;46899;47.542;19.082;2023-05-17T02:54:03;99662.00;;;13.36;100.00
61014;BME280;46899;47.542;19.082;2023-05-17T02:57:05;99671.34;;;13.40;100.00
61014;BME280;46899;47.542;19.082;2023-05-17T03:00:08;99670.25;;;13.44;100.00
61014;BME280;46899;47.542;19.082;2023-05-17T03:03:11;99672.28;;;13.39;100.00
61014;BME280;46899;47.542;19.082;2023-05-17T03:06:14;99668.94;;;13.37;100.00
61014;BME280;46899;47.542;19.082;2023-05-17T03:09:17;99669.19;;;13.33;100.00
61014;BME280;46899;47.542;19.082;2023-05-17T03:12:21;99668.50;;;13.29;100.00
61014;BME280;46899;47.542;19.082;2023-05-17T03:15:24;99672.25;;;13.25;100.00
61014;BME280;46899;47.542;19.082;2023-05-17T03:18:28;99668.69;;;13.26;100.00
61014;BME280;46899;47.542;19.082;2023-05-17T03:21:31;99668.94;;;13.37;100.00
61014;BME280;46899;47.542;19.082;2023-05-17T03:24:33;99678.28;;;13.41;100.00
61014;BME280;46899;47.542;19.082;2023-05-17T03:27:36;99680.72;;;13.44;100.00
61014;BME280;46899;47.542;19.082;2023-05-17T03:30:39;99682.38;;;13.45;100.00
61014;BME280;46899;47.542;19.082;2023-05-17T03:33:43;99684.84;;;13.48;100.00
61014;BME280;46899;47.542;19.082;2023-05-17T03:36:47;99675.88;;;13.52;100.00
61014;BME280;46899;47.542;19.082;2023-05-17T03:39:50;99687.75;;;13.58;100.00
61014;BME280;46899;47.542;19.082;2023-05-17T03:42:52;99686.66;;;13.62;100.00
61014;BME280;46899;47.542;19.082;2023-05-17T03:45:55;99669.03;;;13.65;100.00
61014;BME280;46899;47.542;19.082;2023-05-17T03:48:58;99679.97;;;13.72;100.00
61014;BME280;46899;47.542;19.082;2023-05-17T03:52:01;99693.22;;;13.83;100.00
61014;BME280;46899;47.542;19.082;2023-05-17T03:55:04;99701.75;;;13.87;100.00
61014;BME280;46899;47.542;19.082;2023-05-17T03:58:07;99706.63;;;13.93;100.00
61014;BME280;46899;47.542;19.082;2023-05-17T04:01:10;99715.97;;;13.97;100.00
61014;BME280;46899;47.542;19.082;2023-05-17T04:04:13;99724.59;;;13.99;100.00
61014;BME280;46899;47.542;19.082;2023-05-17T04:07:16;99720.75;;;14.04;100.00
61014;BME280;46899;47.542;19.082;2023-05-17T04:10:18;99727.75;;;14.04;100.00
61014;BME280;46899;47.542;19.082;2023-05-17T04:13:21;99716.75;;;14.13;100.00
61014;BME280;46899;47.542;19.082;2023-05-17T04:16:24;99715.34;;;14.21;100.00
61014;BME280;46899;47.542;19.082;2023-05-17T04:19:26;99715.81;;;14.28;100.00
61014;BME280;46899;47.542;19.082;2023-05-17T04:22:29;99727.56;;;14.36;100.00
61014;BME280;46899;47.542;19.082;2023-05-17T04:25:31;99739.41;;;14.42;100.00
61014;BME280;46899;47.542;19.082;2023-05-17T04:28:34;99724.09;;;14.50;100.00
61014;BME280;46899;47.542;19.082;2023-05-17T04:31:37;99727.75;;;14.62;100.00
61014;BME280;46899;47.542;19.082;2023-05-17T04:34:40;99737.75;;;14.69;100.00
61014;BME280;46899;47.542;19.082;2023-05-17T04:37:42;99739.81;;;14.78;100.00
61014;BME280;46899;47.542;19.082;2023-05-17T04:40:46;99745.22;;;14.89;100.00
61014;BME280;46899;47.542;19.082;2023-05-17T04:43:49;99756.06;;;14.97;100.00
61014;BME280;46899;47.542;19.082;2023-05-17T04:46:52;99767.19;;;15.01;100.00
61014;BME280;46899;47.542;19.082;2023-05-17T04:49:54;99775.78;;;15.03;100.00
61014;BME280;46899;47.542;19.082;2023-05-17T04:52:58;99782.44;;;15.08;100.00
61014;BME280;46899;47.542;19.082;2023-05-17T04:56:01;99782.25;;;15.12;100.00
61014;BME280;46899;47.542;19.082;2023-05-17T04:59:05;99785.22;;;15.20;100.00
61014;BME280;46899;47.542;19.082;2023-05-17T05:02:08;99789.13;;;15.27;100.00
61014;BME280;46899;47.542;19.082;2023-05-17T05:05:11;99780.78;;;15.34;100.00
61014;BME280;46899;47.542;19.082;2023-05-17T05:08:15;99779.34;;;15.43;100.00
61014;BME280;46899;47.542;19.082;2023-05-17T05:11:18;99791.94;;;15.52;100.00
61014;BME280;46899;47.542;19.082;2023-05-17T05:14:21;99794.69;;;15.63;100.00
61014;BME280;46899;47.542;19.082;2023-05-17T05:17:23;99797.03;;;15.67;100.00
61014;BME280;46899;47.542;19.082;2023-05-17T05:20:27;99802.06;;;15.70;100.00
61014;BME280;46899;47.542;19.082;2023-05-17T05:23:30;99800.00;;;15.76;100.00
61014;BME280;46899;47.542;19.082;2023-05-17T05:26:33;99797.69;;;15.84;100.00
61014;BME280;46899;47.542;19.082;2023-05-17T05:29:37;99803.59;;;15.87;100.00
61014;BME280;46899;47.542;19.082;2023-05-17T05:32:40;99806.56;;;15.95;100.00
61014;BME280;46899;47.542;19.082;2023-05-17T05:35:43;99816.19;;;15.95;100.00
61014;BME280;46899;47.542;19.082;2023-05-17T05:38:47;99809.72;;;16.00;100.00
61014;BME280;46899;47.542;19.082;2023-05-17T05:41:50;99808.72;;;16.15;100.00
61014;BME280;46899;47.542;19.082;2023-05-17T05:44:53;99821.97;;;16.26;100.00
61014;BME280;46899;47.542;19.082;2023-05-17T05:47:56;99827.28;;;16.52;100.00
61014;BME280;46899;47.542;19.082;2023-05-17T05:50:59;99826.44;;;16.64;100.00
61014;BME280;46899;47.542;19.082;2023-05-17T05:54:02;99825.63;;;16.76;100.00
61014;BME280;46899;47.542;19.082;2023-05-17T05:57:04;99834.00;;;16.68;100.00
61014;BME280;46899;47.542;19.082;2023-05-17T06:00:08;99831.91;;;16.73;100.00
61014;BME280;46899;47.542;19.082;2023-05-17T06:03:14;99836.34;;;16.98;100.00
61014;BME280;46899;47.542;19.082;2023-05-17T06:06:16;99839.06;;;17.09;100.00
61014;BME280;46899;47.542;19.082;2023-05-17T06:09:20;99836.00;;;16.90;100.00
61014;BME280;46899;47.542;19.082;2023-05-17T06:12:23;99834.88;;;16.81;100.00
61014;BME280;46899;47.542;19.082;2023-05-17T06:15:25;99838.97;;;16.85;100.00
61014;BME280;46899;47.542;19.082;2023-05-17T06:18:28;99843.34;;;16.72;100.00
61014;BME280;46899;47.542;19.082;2023-05-17T06:21:32;99838.53;;;16.66;100.00
61014;BME280;46899;47.542;19.082;2023-05-17T06:24:34;99841.41;;;16.49;100.00
61014;BME280;46899;47.542;19.082;2023-05-17T06:27:37;99848.69;;;16.46;100.00
61014;BME280;46899;47.542;19.082;2023-05-17T06:30:40;99855.19;;;16.40;100.00
61014;BME280;46899;47.542;19.082;2023-05-17T06:33:42;99850.00;;;16.26;100.00
61014;BME280;46899;47.542;19.082;2023-05-17T06:36:45;99857.97;;;16.24;100.00
61014;BME280;46899;47.542;19.082;2023-05-17T06:43:01;99859.59;;;16.00;100.00
61014;BME280;46899;47.542;19.082;2023-05-17T06:46:03;99851.91;;;15.97;100.00
61014;BME280;46899;47.542;19.082;2023-05-17T06:49:06;99859.28;;;16.05;100.00
61014;BME280;46899;47.542;19.082;2023-05-17T06:52:08;99869.78;;;16.05;100.00
61014;BME280;46899;47.542;19.082;2023-05-17T06:55:11;99872.84;;;16.11;100.00
61014;BME280;46899;47.542;19.082;2023-05-17T06:58:13;99870.22;;;16.11;100.00
61014;BME280;46899;47.542;19.082;2023-05-17T07:01:16;99870.75;;;16.16;100.00
61014;BME280;46899;47.542;19.082;2023-05-17T07:04:19;99881.13;;;16.05;100.00
61014;BME280;46899;47.542;19.082;2023-05-17T07:07:23;99879.91;;;16.11;100.00
61014;BME280;46899;47.542;19.082;2023-05-17T07:10:25;99881.75;;;16.09;100.00
61014;BME280;46899;47.542;19.082;2023-05-17T07:13:28;99887.66;;;16.12;100.00
61014;BME280;46899;47.542;19.082;2023-05-17T07:16:30;99894.19;;;16.19;100.00
61014;BME280;46899;47.542;19.082;2023-05-17T07:19:33;99899.44;;;16.19;100.00
61014;BME280;46899;47.542;19.082;2023-05-17T07:22:36;99900.78;;;16.12;100.00
61014;BME280;46899;47.542;19.082;2023-05-17T07:25:38;99892.50;;;16.18;100.00
61014;BME280;46899;47.542;19.082;2023-05-17T07:28:41;99895.03;;;16.20;100.00
61014;BME280;46899;47.542;19.082;2023-05-17T07:31:44;99889.25;;;16.27;100.00
61014;BME280;46899;47.542;19.082;2023-05-17T07:34:46;99898.97;;;16.39;100.00
61014;BME280;46899;47.542;19.082;2023-05-17T07:37:49;99902.41;;;16.54;100.00
61014;BME280;46899;47.542;19.082;2023-05-17T07:40:52;99911.56;;;16.61;100.00
61014;BME280;46899;47.542;19.082;2023-05-17T07:43:54;99908.38;;;16.56;100.00
61014;BME280;46899;47.542;19.082;2023-05-17T07:46:57;99899.31;;;16.48;100.00
61014;BME280;46899;47.542;19.082;2023-05-17T07:49:59;99901.66;;;16.52;100.00
61014;BME280;46899;47.542;19.082;2023-05-17T07:53:02;99903.63;;;16.49;100.00
61014;BME280;46899;47.542;19.082;2023-05-17T07:56:05;99903.41;;;16.39;100.00
61014;BME280;46899;47.542;19.082;2023-05-17T07:59:07;99901.00;;;16.49;100.00
61014;BME280;46899;47.542;19.082;2023-05-17T08:02:10;99907.94;;;16.50;100.00
61014;BME280;46899;47.542;19.082;2023-05-17T08:05:13;99913.66;;;16.56;100.00
61014;BME280;46899;47.542;19.082;2023-05-17T08:08:15;99913.34;;;16.61;100.00
61014;BME280;46899;47.542;19.082;2023-05-17T08:11:18;99833.87;;;16.58;100.00
61014;BME280;46899;47.542;19.082;2023-05-17T08:14:23;99911.75;;;16.58;100.00
61014;BME280;46899;47.542;19.082;2023-05-17T08:17:28;99917.84;;;16.59;100.00
61014;BME280;46899;47.542;19.082;2023-05-17T08:20:30;99925.37;;;16.51;100.00
61014;BME280;46899;47.542;19.082;2023-05-17T08:23:33;99932.53;;;16.49;100.00
61014;BME280;46899;47.542;19.082;2023-05-17T08:26:35;99929.34;;;16.43;100.00
61014;BME280;46899;47.542;19.082;2023-05-17T08:29:38;99934.91;;;16.39;100.00
61014;BME280;46899;47.542;19.082;2023-05-17T08:32:41;99937.84;;;16.34;100.00
61014;BME280;46899;47.542;19.082;2023-05-17T08:35:44;99933.53;;;16.33;100.00
61014;BME280;46899;47.542;19.082;2023-05-17T08:38:46;99932.78;;;16.31;100.00
61014;BME280;46899;47.542;19.082;2023-05-17T08:41:49;99940.50;;;16.47;100.00
61014;BME280;46899;47.542;19.082;2023-05-17T08:44:52;99933.78;;;16.70;100.00
61014;BME280;46899;47.542;19.082;2023-05-17T08:47:55;99929.91;;;17.13;100.00
61014;BME280;46899;47.542;19.082;2023-05-17T08:50:57;99937.06;;;17.24;100.00
61014;BME280;46899;47.542;19.082;2023-05-17T08:54:01;99942.22;;;17.38;100.00
61014;BME280;46899;47.542;19.082;2023-05-17T08:57:07;99939.47;;;17.39;100.00
61014;BME280;46899;47.542;19.082;2023-05-17T09:00:12;99939.69;;;17.36;100.00
61014;BME280;46899;47.542;19.082;2023-05-17T09:03:17;99940.00;;;17.32;100.00
61014;BME280;46899;47.542;19.082;2023-05-17T09:06:20;99938.22;;;17.45;100.00
61014;BME280;46899;47.542;19.082;2023-05-17T09:09:24;99943.03;;;17.51;100.00
61014;BME280;46899;47.542;19.082;2023-05-17T09:12:27;99937.28;;;17.58;100.00
61014;BME280;46899;47.542;19.082;2023-05-17T09:15:30;99933.78;;;17.70;100.00
61014;BME280;46899;47.542;19.082;2023-05-17T09:18:35;99939.13;;;17.82;100.00
61014;BME280;46899;47.542;19.082;2023-05-17T09:21:38;99939.87;;;18.07;100.00
61014;BME280;46899;47.542;19.082;2023-05-17T09:24:41;99940.19;;;18.39;100.00
61014;BME280;46899;47.542;19.082;2023-05-17T09:27:43;99934.06;;;18.62;100.00
61014;BME280;46899;47.542;19.082;2023-05-17T09:30:46;99940.81;;;18.77;100.00
61014;BME280;46899;47.542;19.082;2023-05-17T09:33:49;99947.06;;;18.76;100.00
61014;BME280;46899;47.542;19.082;2023-05-17T09:36:52;99946.94;;;18.78;100.00
61014;BME280;46899;47.542;19.082;2023-05-17T09:39:55;99947.09;;;18.87;100.00
61014;BME280;46899;47.542;19.082;2023-05-17T09:42:58;99946.19;;;19.10;100.00
61014;BME280;46899;47.542;19.082;2023-05-17T09:46:00;99952.06;;;19.25;100.00
61014;BME280;46899;47.542;19.082;2023-05-17T09:49:03;99954.78;;;19.01;100.00
61014;BME280;46899;47.542;19.082;2023-05-17T09:52:06;99961.25;;;18.86;100.00
61014;BME280;46899;47.542;19.082;2023-05-17T09:55:09;99966.41;;;18.64;100.00
61014;BME280;46899;47.542;19.082;2023-05-17T09:58:16;99966.38;;;18.53;100.00
61014;BME280;46899;47.542;19.082;2023-05-17T10:01:19;99977.13;;;18.50;100.00
